createdAt,value
2022-09-01T00:01:14.789Z,17.40
2022-09-01T00:03:42.804Z,17.40
2022-09-01T00:06:10.198Z,17.40
2022-09-01T00:08:36.804Z,17.40
2022-09-01T00:11:03.400Z,17.30
2022-09-01T00:13:33.190Z,17.30
2022-09-01T00:16:00.709Z,17.30
2022-09-01T00:18:27.315Z,17.30
2022-09-01T00:20:55.800Z,17.30
2022-09-01T00:23:22.387Z,17.30
2022-09-01T00:25:48.969Z,17.40
2022-09-01T00:28:15.539Z,17.40
2022-09-01T00:30:42.217Z,17.30
2022-09-01T00:33:08.869Z,17.30
2022-09-01T00:35:37.356Z,17.40
2022-09-01T00:38:04.330Z,17.40
2022-09-01T00:40:30.983Z,17.40
2022-09-01T00:42:57.575Z,17.40
2022-09-01T00:45:24.180Z,17.40
2022-09-01T00:47:50.796Z,17.40
2022-09-01T00:50:18.285Z,17.30
2022-09-01T00:52:47.702Z,17.30
2022-09-01T00:55:25.327Z,17.30
2022-09-01T00:57:51.967Z,17.40
2022-09-01T01:00:20.365Z,17.30
2022-09-01T01:02:47.938Z,17.30
2022-09-01T01:05:15.490Z,17.30
2022-09-01T01:07:47.547Z,17.30
2022-09-01T01:10:15.851Z,17.30
2022-09-01T01:12:43.787Z,17.30
2022-09-01T01:15:14.566Z,17.30
2022-09-01T01:17:41.235Z,17.30
2022-09-01T01:20:27.534Z,17.40
2022-09-01T01:23:03.023Z,17.40
2022-09-01T01:25:32.349Z,17.30
2022-09-01T01:28:13.911Z,17.30
2022-09-01T01:30:45.055Z,17.30
2022-09-01T01:33:12.131Z,17.20
2022-09-01T01:35:40.001Z,17.20
2022-09-01T01:38:07.871Z,17.20
2022-09-01T01:40:34.810Z,17.20
2022-09-01T01:43:01.922Z,17.20
2022-09-01T01:45:28.617Z,17.20
2022-09-01T01:47:56.422Z,17.20
2022-09-01T01:50:30.029Z,17.10
2022-09-01T01:52:59.670Z,17.10
2022-09-01T01:55:28.922Z,17.10
2022-09-01T01:57:56.278Z,17.00
2022-09-01T02:00:30.622Z,17.10
2022-09-01T02:02:57.867Z,17.10
2022-09-01T02:05:26.444Z,17.10
2022-09-01T02:07:56.044Z,17.10
2022-09-01T02:10:24.003Z,17.00
2022-09-01T02:12:50.858Z,17.00
2022-09-01T02:15:17.477Z,16.90
2022-09-01T02:17:44.966Z,17.00
2022-09-01T02:20:11.727Z,16.90
2022-09-01T02:22:39.461Z,16.90
2022-09-01T02:25:06.373Z,16.90
2022-09-01T02:27:35.405Z,16.90
2022-09-01T02:30:02.546Z,16.90
2022-09-01T02:32:29.161Z,16.90
2022-09-01T02:35:01.140Z,16.90
2022-09-01T02:37:28.020Z,16.90
2022-09-01T02:39:57.610Z,16.90
2022-09-01T02:42:27.507Z,16.90
2022-09-01T02:44:55.077Z,16.80
2022-09-01T02:47:23.222Z,16.80
2022-09-01T02:49:51.176Z,16.70
2022-09-01T02:52:20.622Z,16.80
2022-09-01T02:54:49.638Z,16.80
2022-09-01T02:57:17.326Z,16.70
2022-09-01T02:59:44.092Z,16.80
2022-09-01T03:02:11.190Z,16.80
2022-09-01T03:04:38.907Z,16.80
2022-09-01T03:07:05.912Z,16.80
2022-09-01T03:09:35.518Z,16.70
2022-09-01T03:12:02.618Z,16.80
2022-09-01T03:14:29.961Z,16.70
2022-09-01T03:16:57.614Z,16.70
2022-09-01T03:19:24.326Z,16.70
2022-09-01T03:21:50.902Z,16.70
2022-09-01T03:24:17.825Z,16.70
2022-09-01T03:26:45.937Z,16.60
2022-09-01T03:29:16.872Z,16.60
2022-09-01T03:31:45.497Z,16.60
2022-09-01T03:34:12.551Z,16.60
2022-09-01T03:36:39.840Z,16.50
2022-09-01T03:39:13.401Z,16.50
2022-09-01T03:41:43.509Z,16.50
2022-09-01T03:44:13.790Z,16.40
2022-09-01T03:46:40.991Z,16.40
2022-09-01T03:49:08.031Z,16.40
2022-09-01T03:51:35.246Z,16.30
2022-09-01T03:54:02.094Z,16.30
2022-09-01T03:56:29.564Z,16.30
2022-09-01T03:58:57.430Z,16.20
2022-09-01T04:01:28.430Z,16.10
2022-09-01T04:03:55.346Z,16.20
2022-09-01T04:06:24.054Z,16.10
2022-09-01T04:08:53.869Z,16.10
2022-09-01T04:11:24.115Z,16.10
2022-09-01T04:13:51.547Z,16.00
2022-09-01T04:16:39.598Z,16.00
2022-09-01T04:19:16.021Z,15.90
2022-09-01T04:21:43.919Z,15.90
2022-09-01T04:24:12.269Z,15.90
2022-09-01T04:26:39.194Z,15.90
2022-09-01T04:29:06.842Z,15.90
2022-09-01T04:31:33.527Z,15.90
2022-09-01T04:34:00.132Z,16.10
2022-09-01T04:36:30.653Z,15.80
2022-09-01T04:39:01.220Z,15.80
2022-09-01T04:41:30.985Z,15.80
2022-09-01T04:43:58.825Z,15.80
2022-09-01T04:46:28.434Z,15.80
2022-09-01T04:48:56.019Z,15.80
2022-09-01T04:51:24.207Z,15.80
2022-09-01T04:53:50.826Z,15.80
2022-09-01T04:56:19.451Z,15.80
2022-09-01T04:58:49.763Z,15.90
2022-09-01T05:01:17.677Z,15.80
2022-09-01T05:03:45.353Z,15.90
2022-09-01T05:06:15.666Z,15.80
2022-09-01T05:08:43.407Z,15.90
2022-09-01T05:11:16.844Z,15.90
2022-09-01T05:13:45.417Z,15.90
2022-09-01T05:16:14.965Z,15.90
2022-09-01T05:18:45.051Z,16.00
2022-09-01T05:21:11.785Z,16.00
2022-09-01T05:23:40.554Z,16.00
2022-09-01T05:26:16.836Z,16.20
2022-09-01T05:28:44.311Z,16.40
2022-09-01T05:31:11.006Z,16.60
2022-09-01T05:33:39.802Z,16.70
2022-09-01T05:36:08.542Z,17.20
2022-09-01T05:38:35.170Z,17.10
2022-09-01T05:41:03.227Z,17.20
2022-09-01T05:43:30.928Z,17.40
2022-09-01T05:46:06.558Z,17.50
2022-09-01T05:48:40.173Z,17.40
2022-09-01T05:51:22.442Z,17.50
2022-09-01T05:53:58.750Z,17.80
2022-09-01T05:56:26.715Z,18.10
2022-09-01T06:01:43.161Z,18.40
2022-09-01T06:04:13.612Z,18.70
2022-09-01T06:07:04.110Z,18.80
2022-09-01T06:09:31.039Z,19.00
2022-09-01T06:11:57.680Z,19.20
2022-09-01T06:14:24.650Z,19.50
2022-09-01T06:16:54.145Z,19.70
2022-09-01T06:19:20.934Z,20.10
2022-09-01T06:21:48.913Z,20.30
2022-09-01T06:24:15.528Z,20.50
2022-09-01T06:26:42.238Z,20.60
2022-09-01T06:29:10.105Z,20.80
2022-09-01T06:31:39.336Z,20.90
2022-09-01T06:34:07.682Z,21.10
2022-09-01T06:36:36.576Z,21.10
2022-09-01T06:39:04.010Z,21.10
2022-09-01T06:41:31.471Z,21.10
2022-09-01T06:43:58.107Z,21.00
2022-09-01T06:46:29.469Z,21.00
2022-09-01T06:48:58.828Z,20.90
2022-09-01T06:51:28.556Z,21.00
2022-09-01T06:53:59.331Z,21.20
2022-09-01T06:56:31.924Z,21.30
2022-09-01T06:58:59.349Z,21.40
2022-09-01T07:01:27.658Z,21.50
2022-09-01T07:03:55.504Z,21.50
2022-09-01T07:09:29.612Z,21.50
2022-09-01T07:12:37.358Z,21.50
2022-09-01T07:17:39.431Z,21.30
2022-09-01T07:23:09.183Z,21.50
2022-09-01T07:26:04.508Z,22.00
2022-09-01T07:28:36.066Z,22.70
2022-09-01T07:33:54.372Z,23.90
2022-09-01T07:36:29.059Z,24.70
2022-09-01T07:44:29.444Z,26.50
2022-09-01T07:52:31.423Z,27.70
2022-09-01T07:54:58.112Z,28.10
2022-09-01T07:57:24.690Z,28.50
2022-09-01T07:59:55.413Z,28.30
2022-09-01T08:02:22.126Z,28.00
2022-09-01T08:04:49.148Z,28.00
2022-09-01T08:07:16.315Z,28.00
2022-09-01T08:09:44.267Z,28.30
2022-09-01T08:12:11.115Z,28.70
2022-09-01T08:14:38.002Z,28.30
2022-09-01T08:19:53.420Z,28.40
2022-09-01T08:22:24.313Z,28.70
2022-09-01T08:24:51.990Z,29.30
2022-09-01T08:27:18.734Z,29.70
2022-09-01T08:29:45.328Z,30.50
2022-09-01T08:32:12.109Z,31.20
2022-09-01T08:34:38.735Z,32.00
2022-09-01T08:37:05.539Z,32.70
2022-09-01T08:39:32.841Z,33.50
2022-09-01T08:41:59.442Z,33.40
2022-09-01T08:44:33.213Z,33.70
2022-09-01T08:47:03.520Z,34.30
2022-09-01T08:49:30.857Z,34.90
2022-09-01T08:51:59.057Z,34.90
2022-09-01T08:54:35.044Z,35.20
2022-09-01T08:57:04.885Z,35.50
2022-09-01T08:59:31.489Z,36.30
2022-09-01T09:02:08.099Z,36.30
2022-09-01T09:04:47.393Z,36.30
2022-09-01T09:07:20.152Z,36.20
2022-09-01T09:09:54.029Z,36.10
2022-09-01T09:12:28.913Z,36.10
2022-09-01T09:15:21.876Z,35.20
2022-09-01T09:17:58.915Z,35.20
2022-09-01T09:20:27.312Z,34.40
2022-09-01T09:22:54.562Z,33.90
2022-09-01T09:25:21.383Z,33.90
2022-09-01T09:27:48.724Z,32.80
2022-09-01T09:30:26.990Z,31.80
2022-09-01T09:35:41.901Z,31.00
2022-09-01T09:38:22.791Z,30.70
2022-09-01T09:43:49.343Z,29.90
2022-09-01T09:46:35.951Z,29.20
2022-09-01T09:49:35.921Z,28.70
2022-09-01T09:52:10.324Z,28.70
2022-09-01T09:54:55.889Z,29.00
2022-09-01T09:57:22.605Z,29.20
2022-09-01T10:00:04.580Z,29.10
2022-09-01T10:02:33.663Z,28.60
2022-09-01T10:05:02.348Z,28.10
2022-09-01T10:07:31.683Z,27.30
2022-09-01T10:10:00.681Z,27.30
2022-09-01T10:12:29.410Z,26.80
2022-09-01T10:15:07.112Z,27.00
2022-09-01T10:17:43.612Z,27.00
2022-09-01T10:20:18.655Z,27.20
2022-09-01T10:22:48.404Z,27.00
2022-09-01T10:25:18.105Z,27.00
2022-09-01T10:27:47.484Z,26.90
2022-09-01T10:30:19.619Z,26.90
2022-09-01T10:32:55.050Z,27.00
2022-09-01T10:35:32.689Z,27.30
2022-09-01T10:38:01.223Z,27.20
2022-09-01T10:40:32.547Z,26.90
2022-09-01T10:43:00.932Z,26.90
2022-09-01T10:45:33.749Z,26.80
2022-09-01T10:48:30.459Z,26.70
2022-09-01T10:51:18.241Z,26.30
2022-09-01T10:53:47.048Z,26.20
2022-09-01T10:56:28.166Z,26.30
2022-09-01T11:01:49.890Z,26.70
2022-09-01T11:04:21.085Z,26.80
2022-09-01T11:09:39.027Z,27.50
2022-09-01T11:12:10.107Z,28.10
2022-09-01T11:14:57.250Z,28.80
2022-09-01T11:17:30.027Z,30.60
2022-09-01T11:19:59.629Z,31.50
2022-09-01T11:22:26.624Z,31.50
2022-09-01T11:25:12.154Z,30.60
2022-09-01T11:27:48.179Z,30.10
2022-09-01T11:30:22.384Z,29.70
2022-09-01T11:32:52.612Z,29.50
2022-09-01T11:35:21.593Z,29.20
2022-09-01T11:37:48.804Z,29.20
2022-09-01T11:40:21.612Z,29.40
2022-09-01T11:42:49.083Z,29.10
2022-09-01T11:45:38.074Z,29.00
2022-09-01T11:48:09.503Z,28.60
2022-09-01T11:50:37.390Z,28.50
2022-09-01T11:53:06.697Z,28.20
2022-09-01T11:55:35.629Z,28.00
2022-09-01T11:58:02.916Z,27.50
2022-09-01T12:00:38.434Z,27.50
2022-09-01T12:03:26.644Z,27.30
2022-09-01T12:06:04.137Z,27.40
2022-09-01T12:08:33.090Z,27.30
2022-09-01T12:11:04.270Z,27.00
2022-09-01T12:13:30.979Z,26.50
2022-09-01T12:16:18.366Z,26.60
2022-09-01T12:18:51.317Z,26.40
2022-09-01T12:21:23.068Z,26.20
2022-09-01T12:23:49.863Z,25.90
2022-09-01T12:26:18.919Z,25.80
2022-09-01T12:28:46.383Z,25.60
2022-09-01T12:31:15.091Z,25.50
2022-09-01T12:33:45.348Z,25.60
2022-09-01T12:36:21.726Z,25.60
2022-09-01T12:38:48.574Z,25.40
2022-09-01T12:41:35.189Z,25.20
2022-09-01T12:44:20.959Z,25.20
2022-09-01T12:46:47.564Z,25.10
2022-09-01T12:49:18.601Z,25.20
2022-09-01T12:51:47.701Z,25.30
2022-09-01T12:54:15.028Z,25.40
2022-09-01T12:56:47.777Z,25.30
2022-09-01T12:59:35.786Z,25.40
2022-09-01T13:02:22.537Z,25.60
2022-09-01T13:04:49.625Z,25.80
2022-09-01T13:07:16.171Z,26.50
2022-09-01T13:09:42.869Z,27.30
2022-09-01T13:12:10.605Z,28.30
2022-09-01T13:14:37.275Z,29.00
2022-09-01T13:17:04.263Z,29.30
2022-09-01T13:19:30.945Z,28.60
2022-09-01T13:21:57.631Z,28.40
2022-09-01T13:24:28.047Z,28.40
2022-09-01T13:29:43.903Z,28.00
2022-09-01T13:32:19.886Z,27.70
2022-09-01T13:34:48.600Z,28.00
2022-09-01T13:37:17.327Z,27.90
2022-09-01T13:39:43.901Z,27.70
2022-09-01T13:42:10.464Z,27.70
2022-09-01T13:44:37.046Z,27.50
2022-09-01T13:50:07.528Z,27.30
2022-09-01T13:52:35.089Z,27.50
2022-09-01T13:55:01.759Z,28.00
2022-09-01T13:57:28.374Z,28.10
2022-09-01T14:00:02.998Z,27.80
2022-09-01T14:02:29.806Z,27.80
2022-09-01T14:04:56.567Z,27.70
2022-09-01T14:07:23.236Z,27.60
2022-09-01T14:09:49.803Z,27.50
2022-09-01T14:12:16.421Z,27.20
2022-09-01T14:17:29.742Z,27.20
2022-09-01T14:19:57.483Z,27.20
2022-09-01T14:22:24.127Z,27.00
2022-09-01T14:24:50.701Z,27.30
2022-09-01T14:27:17.320Z,27.30
2022-09-01T14:32:14.056Z,27.80
2022-09-01T14:34:40.708Z,27.80
2022-09-01T14:37:07.279Z,27.70
2022-09-01T14:39:33.979Z,28.00
2022-09-01T14:42:00.612Z,28.10
2022-09-01T14:44:27.223Z,28.10
2022-09-01T14:46:54.498Z,28.10
2022-09-01T14:49:22.486Z,28.10
2022-09-01T14:54:36.992Z,27.90
2022-09-01T14:59:50.730Z,27.90
2022-09-01T15:02:19.402Z,27.90
2022-09-01T15:04:46.040Z,27.70
2022-09-01T15:07:13.454Z,27.70
2022-09-01T15:09:40.048Z,27.80
2022-09-01T15:12:06.770Z,27.80
2022-09-01T15:14:33.438Z,28.10
2022-09-01T15:17:00.905Z,28.30
2022-09-01T15:19:27.550Z,28.50
2022-09-01T15:21:54.128Z,28.40
2022-09-01T15:24:21.213Z,28.30
2022-09-01T15:26:47.800Z,28.10
2022-09-01T15:29:15.087Z,27.60
2022-09-01T15:31:42.595Z,27.40
2022-09-01T15:34:09.645Z,27.10
2022-09-01T15:36:39.881Z,26.80
2022-09-01T15:39:08.018Z,26.50
2022-09-01T15:41:34.959Z,26.20
2022-09-01T15:44:02.411Z,26.00
2022-09-01T15:46:32.745Z,25.80
2022-09-01T15:49:00.443Z,25.50
2022-09-01T15:51:38.579Z,25.00
2022-09-01T15:54:06.565Z,24.80
2022-09-01T15:56:33.207Z,24.70
2022-09-01T15:59:01.582Z,24.70
2022-09-01T16:01:29.538Z,24.60
2022-09-01T16:03:56.449Z,24.40
2022-09-01T16:06:23.518Z,24.30
2022-09-01T16:08:50.481Z,24.00
2022-09-01T16:11:17.059Z,23.90
2022-09-01T16:13:43.631Z,23.70
2022-09-01T16:16:10.235Z,23.70
2022-09-01T16:18:45.360Z,23.60
2022-09-01T16:21:34.758Z,23.50
2022-09-01T16:24:07.827Z,23.50
2022-09-01T16:26:35.584Z,23.40
2022-09-01T16:29:07.711Z,23.50
2022-09-01T16:31:34.344Z,23.60
2022-09-01T16:34:07.238Z,23.60
2022-09-01T16:36:34.650Z,23.60
2022-09-01T16:39:13.011Z,23.40
2022-09-01T16:42:01.190Z,23.40
2022-09-01T16:44:43.314Z,23.40
2022-09-01T16:47:16.088Z,23.50
2022-09-01T16:49:45.760Z,23.40
2022-09-01T16:52:19.923Z,23.40
2022-09-01T16:55:05.508Z,23.50
2022-09-01T16:57:32.618Z,23.60
2022-09-01T17:00:00.623Z,23.50
2022-09-01T17:02:35.864Z,23.40
2022-09-01T17:05:12.803Z,23.30
2022-09-01T17:07:47.096Z,23.30
2022-09-01T17:10:16.805Z,23.20
2022-09-01T17:12:51.812Z,23.10
2022-09-01T17:15:31.610Z,23.10
2022-09-01T17:18:22.984Z,23.10
2022-09-01T17:20:58.340Z,23.00
2022-09-01T17:23:28.387Z,23.00
2022-09-01T17:25:58.842Z,22.90
2022-09-01T17:28:45.903Z,22.80
2022-09-01T17:31:14.589Z,22.70
2022-09-01T17:33:41.234Z,22.60
2022-09-01T17:36:31.392Z,22.50
2022-09-01T17:39:14.120Z,22.30
2022-09-01T17:41:47.031Z,22.10
2022-09-01T17:44:29.786Z,22.00
2022-09-01T17:47:01.954Z,21.90
2022-09-01T17:49:33.281Z,21.80
2022-09-01T17:52:15.171Z,21.70
2022-09-01T17:54:41.792Z,21.70
2022-09-01T17:57:26.717Z,21.60
2022-09-01T17:59:59.590Z,21.50
2022-09-01T18:02:29.025Z,21.50
2022-09-01T18:05:04.538Z,21.40
2022-09-01T18:07:39.622Z,21.40
2022-09-01T18:10:11.778Z,21.30
2022-09-01T18:12:39.698Z,21.20
2022-09-01T18:15:14.463Z,21.20
2022-09-01T18:17:40.978Z,21.20
2022-09-01T18:20:24.401Z,21.10
2022-09-01T18:23:11.118Z,21.00
2022-09-01T18:25:39.727Z,21.00
2022-09-01T18:28:06.496Z,21.10
2022-09-01T18:30:59.399Z,20.90
2022-09-01T18:33:32.915Z,20.90
2022-09-01T18:36:03.683Z,20.80
2022-09-01T18:38:49.265Z,20.70
2022-09-01T18:41:34.513Z,20.70
2022-09-01T18:44:37.179Z,20.60
2022-09-01T18:47:08.321Z,20.60
2022-09-01T18:49:53.484Z,20.50
2022-09-01T18:52:28.425Z,20.40
2022-09-01T18:55:13.807Z,20.40
2022-09-01T18:57:41.497Z,20.30
2022-09-01T19:00:17.827Z,20.20
2022-09-01T19:02:51.643Z,20.20
2022-09-01T19:05:38.432Z,20.10
2022-09-01T19:08:27.312Z,20.00
2022-09-01T19:11:01.311Z,20.00
2022-09-01T19:13:39.490Z,19.90
2022-09-01T19:16:13.681Z,19.80
2022-09-01T19:18:45.413Z,19.80
2022-09-01T19:21:21.246Z,19.70
2022-09-01T19:23:59.294Z,19.70
2022-09-01T19:26:26.339Z,19.60
2022-09-01T19:29:06.458Z,19.50
2022-09-01T19:31:34.617Z,19.40
2022-09-01T19:34:05.200Z,19.40
2022-09-01T19:37:04.089Z,19.40
2022-09-01T19:39:32.766Z,19.30
2022-09-01T19:42:03.538Z,19.20
2022-09-01T19:44:30.115Z,19.20
2022-09-01T19:47:00.840Z,19.10
2022-09-01T19:49:39.948Z,19.00
2022-09-01T19:52:06.609Z,19.00
2022-09-01T19:54:36.178Z,18.90
2022-09-01T19:57:09.615Z,18.80
2022-09-01T19:59:48.439Z,18.80
2022-09-01T20:02:23.259Z,18.70
2022-09-01T20:04:57.132Z,18.70
2022-09-01T20:07:31.009Z,18.60
2022-09-01T20:10:07.338Z,18.50
2022-09-01T20:12:40.952Z,18.50
2022-09-01T20:15:10.952Z,18.50
2022-09-01T20:17:48.142Z,18.40
2022-09-01T20:20:17.641Z,18.40
2022-09-01T20:22:50.060Z,18.30
2022-09-01T20:25:18.866Z,18.30
2022-09-01T20:27:48.316Z,18.20
2022-09-01T20:30:18.083Z,18.10
2022-09-01T20:32:45.616Z,18.10
2022-09-01T20:35:14.377Z,18.00
2022-09-01T20:37:46.425Z,18.00
2022-09-01T20:40:27.579Z,18.00
2022-09-01T20:42:54.206Z,18.00
2022-09-01T20:45:22.850Z,17.90
2022-09-01T20:47:55.338Z,17.90
2022-09-01T20:50:45.070Z,17.80
2022-09-01T20:53:14.564Z,17.80
2022-09-01T20:55:47.851Z,17.70
2022-09-01T20:58:25.413Z,17.60
2022-09-01T21:01:04.714Z,17.60
2022-09-01T21:03:42.843Z,17.50
2022-09-01T21:06:19.615Z,17.50
2022-09-01T21:08:56.575Z,17.40
2022-09-01T21:11:23.181Z,17.40
2022-09-01T21:14:14.099Z,17.30
2022-09-01T21:16:41.029Z,17.20
2022-09-01T21:19:26.647Z,17.20
2022-09-01T21:21:53.186Z,17.10
2022-09-01T21:24:20.570Z,17.00
2022-09-01T21:26:48.983Z,17.00
2022-09-01T21:29:18.288Z,16.90
2022-09-01T21:31:46.874Z,16.90
2022-09-01T21:34:16.815Z,16.80
2022-09-01T21:36:43.809Z,16.80
2022-09-01T21:39:10.499Z,16.60
2022-09-01T21:41:39.095Z,16.50
2022-09-01T21:44:05.880Z,16.60
2022-09-01T21:46:32.583Z,16.60
2022-09-01T21:48:59.370Z,16.50
2022-09-01T21:51:25.936Z,16.50
2022-09-01T21:53:52.597Z,16.40
2022-09-01T21:56:19.250Z,16.40
2022-09-01T21:58:52.540Z,16.30
2022-09-01T22:01:19.188Z,16.40
2022-09-01T22:03:45.864Z,16.40
2022-09-01T22:06:12.732Z,16.30
2022-09-01T22:08:39.487Z,16.30
2022-09-01T22:11:09.789Z,16.30
2022-09-01T22:13:36.767Z,16.20
2022-09-01T22:16:03.724Z,16.20
2022-09-01T22:18:30.563Z,16.20
2022-09-01T22:21:07.542Z,16.20
2022-09-01T22:23:34.396Z,16.20
2022-09-01T22:26:01.057Z,16.20
2022-09-01T22:28:27.680Z,16.10
2022-09-01T22:30:54.282Z,16.10
2022-09-01T22:33:22.471Z,16.10
2022-09-01T22:35:51.051Z,16.00
2022-09-01T22:38:20.202Z,15.90
2022-09-01T22:40:52.032Z,15.90
2022-09-01T22:43:19.065Z,15.90
2022-09-01T22:45:46.570Z,15.90
2022-09-01T22:48:13.814Z,15.80
2022-09-01T22:50:41.933Z,15.80
2022-09-01T22:53:09.350Z,15.70
2022-09-01T22:55:37.006Z,15.70
2022-09-01T22:58:03.907Z,15.70
2022-09-01T23:00:30.502Z,15.70
2022-09-01T23:02:58.855Z,15.70
2022-09-01T23:05:25.575Z,15.60
2022-09-01T23:07:52.874Z,15.50
2022-09-01T23:10:19.542Z,15.50
2022-09-01T23:12:46.111Z,15.50
2022-09-01T23:15:12.706Z,15.40
2022-09-01T23:17:39.653Z,15.40
2022-09-01T23:20:07.692Z,15.30
2022-09-01T23:22:34.381Z,15.30
2022-09-01T23:25:00.982Z,15.20
2022-09-01T23:27:27.677Z,15.20
2022-09-01T23:29:54.271Z,15.20
2022-09-01T23:32:20.903Z,15.10
2022-09-01T23:34:47.765Z,15.10
2022-09-01T23:37:14.354Z,15.00
2022-09-01T23:39:41.192Z,14.90
2022-09-01T23:42:08.010Z,15.00
2022-09-01T23:44:36.723Z,14.90
2022-09-01T23:47:03.397Z,14.90
2022-09-01T23:49:29.976Z,14.90
2022-09-01T23:51:56.540Z,14.80
2022-09-01T23:54:23.192Z,14.80
2022-09-01T23:56:49.896Z,14.80
2022-09-01T23:59:16.623Z,14.80
